sensor_id;sensor_type;location;lat;lon;timestamp;P1;durP1;ratioP1;P2;durP2;ratioP2
46613;SDS011;32338;50.430;6.806;2023-12-22T00:01:03;8.23;;;1.30;;
46613;SDS011;32338;50.430;6.806;2023-12-22T00:03:30;12.00;;;1.20;;
46613;SDS011;32338;50.430;6.806;2023-12-22T00:05:56;5.03;;;0.95;;
46613;SDS011;32338;50.430;6.806;2023-12-22T00:08:24;6.28;;;1.45;;
46613;SDS011;32338;50.430;6.806;2023-12-22T00:10:51;8.82;;;1.10;;
46613;SDS011;32338;50.430;6.806;2023-12-22T00:13:17;3.92;;;0.95;;
46613;SDS011;32338;50.430;6.806;2023-12-22T00:15:44;3.40;;;0.93;;
46613;SDS011;32338;50.430;6.806;2023-12-22T00:18:10;6.30;;;0.80;;
46613;SDS011;32338;50.430;6.806;2023-12-22T00:20:37;13.98;;;1.15;;
46613;SDS011;32338;50.430;6.806;2023-12-22T00:23:03;10.32;;;1.23;;
46613;SDS011;32338;50.430;6.806;2023-12-22T00:25:31;10.85;;;1.17;;
46613;SDS011;32338;50.430;6.806;2023-12-22T00:28:01;14.80;;;1.50;;
46613;SDS011;32338;50.430;6.806;2023-12-22T00:30:27;16.65;;;1.58;;
46613;SDS011;32338;50.430;6.806;2023-12-22T00:32:54;11.50;;;1.08;;
46613;SDS011;32338;50.430;6.806;2023-12-22T00:35:21;12.07;;;1.23;;
46613;SDS011;32338;50.430;6.806;2023-12-22T00:37:47;8.82;;;1.23;;
46613;SDS011;32338;50.430;6.806;2023-12-22T00:40:14;8.68;;;1.48;;
46613;SDS011;32338;50.430;6.806;2023-12-22T00:42:42;18.42;;;1.55;;
46613;SDS011;32338;50.430;6.806;2023-12-22T00:45:09;13.10;;;1.52;;
46613;SDS011;32338;50.430;6.806;2023-12-22T00:47:35;17.23;;;1.63;;
46613;SDS011;32338;50.430;6.806;2023-12-22T00:50:02;10.45;;;1.50;;
46613;SDS011;32338;50.430;6.806;2023-12-22T00:52:30;15.55;;;2.22;;
46613;SDS011;32338;50.430;6.806;2023-12-22T00:54:57;15.13;;;1.73;;
46613;SDS011;32338;50.430;6.806;2023-12-22T00:57:23;8.23;;;1.83;;
46613;SDS011;32338;50.430;6.806;2023-12-22T00:59:51;12.52;;;1.35;;
46613;SDS011;32338;50.430;6.806;2023-12-22T01:02:18;9.55;;;1.40;;
46613;SDS011;32338;50.430;6.806;2023-12-22T01:04:45;12.35;;;1.40;;
46613;SDS011;32338;50.430;6.806;2023-12-22T01:07:12;7.47;;;0.85;;
46613;SDS011;32338;50.430;6.806;2023-12-22T01:09:39;9.13;;;1.13;;
46613;SDS011;32338;50.430;6.806;2023-12-22T01:12:06;10.73;;;0.88;;
46613;SDS011;32338;50.430;6.806;2023-12-22T01:14:33;8.90;;;1.23;;
46613;SDS011;32338;50.430;6.806;2023-12-22T01:17:01;3.92;;;0.82;;
46613;SDS011;32338;50.430;6.806;2023-12-22T01:19:27;9.77;;;0.88;;
46613;SDS011;32338;50.430;6.806;2023-12-22T01:21:54;7.40;;;0.80;;
46613;SDS011;32338;50.430;6.806;2023-12-22T01:24:20;5.95;;;0.82;;
46613;SDS011;32338;50.430;6.806;2023-12-22T01:26:47;8.63;;;1.13;;
46613;SDS011;32338;50.430;6.806;2023-12-22T01:29:13;12.50;;;1.20;;
46613;SDS011;32338;50.430;6.806;2023-12-22T01:31:40;5.30;;;1.33;;
46613;SDS011;32338;50.430;6.806;2023-12-22T01:34:08;5.68;;;1.00;;
46613;SDS011;32338;50.430;6.806;2023-12-22T01:36:34;5.47;;;0.85;;
46613;SDS011;32338;50.430;6.806;2023-12-22T01:39:01;6.15;;;1.08;;
46613;SDS011;32338;50.430;6.806;2023-12-22T01:41:29;5.30;;;1.13;;
46613;SDS011;32338;50.430;6.806;2023-12-22T01:43:55;7.10;;;0.63;;
46613;SDS011;32338;50.430;6.806;2023-12-22T01:46:22;7.30;;;0.88;;
46613;SDS011;32338;50.430;6.806;2023-12-22T01:48:48;3.33;;;0.70;;
46613;SDS011;32338;50.430;6.806;2023-12-22T01:51:16;6.43;;;0.60;;
46613;SDS011;32338;50.430;6.806;2023-12-22T01:53:44;4.10;;;0.80;;
46613;SDS011;32338;50.430;6.806;2023-12-22T01:56:11;3.22;;;0.73;;
46613;SDS011;32338;50.430;6.806;2023-12-22T01:58:38;7.93;;;1.42;;
46613;SDS011;32338;50.430;6.806;2023-12-22T02:01:06;10.88;;;1.30;;
46613;SDS011;32338;50.430;6.806;2023-12-22T02:03:33;5.75;;;0.75;;
46613;SDS011;32338;50.430;6.806;2023-12-22T02:06:01;12.73;;;1.75;;
46613;SDS011;32338;50.430;6.806;2023-12-22T02:08:30;6.55;;;1.23;;
46613;SDS011;32338;50.430;6.806;2023-12-22T02:10:58;9.52;;;1.30;;
46613;SDS011;32338;50.430;6.806;2023-12-22T02:13:25;12.57;;;1.42;;
46613;SDS011;32338;50.430;6.806;2023-12-22T02:15:51;11.02;;;1.20;;
46613;SDS011;32338;50.430;6.806;2023-12-22T02:18:25;8.57;;;1.23;;
46613;SDS011;32338;50.430;6.806;2023-12-22T02:20:58;2.30;;;0.52;;
46613;SDS011;32338;50.430;6.806;2023-12-22T02:23:26;8.93;;;0.95;;
46613;SDS011;32338;50.430;6.806;2023-12-22T02:25:54;7.22;;;0.90;;
46613;SDS011;32338;50.430;6.806;2023-12-22T02:28:28;5.40;;;0.60;;
46613;SDS011;32338;50.430;6.806;2023-12-22T02:30:56;6.07;;;0.60;;
46613;SDS011;32338;50.430;6.806;2023-12-22T02:33:28;5.35;;;0.75;;
46613;SDS011;32338;50.430;6.806;2023-12-22T02:35:58;5.55;;;0.80;;
46613;SDS011;32338;50.430;6.806;2023-12-22T02:38:31;3.00;;;0.40;;
46613;SDS011;32338;50.430;6.806;2023-12-22T02:40:59;5.45;;;0.47;;
46613;SDS011;32338;50.430;6.806;2023-12-22T02:43:27;4.53;;;0.95;;
46613;SDS011;32338;50.430;6.806;2023-12-22T02:45:54;2.53;;;0.85;;
46613;SDS011;32338;50.430;6.806;2023-12-22T02:48:20;3.75;;;0.60;;
46613;SDS011;32338;50.430;6.806;2023-12-22T02:50:47;3.22;;;0.55;;
46613;SDS011;32338;50.430;6.806;2023-12-22T02:53:13;5.53;;;0.88;;
46613;SDS011;32338;50.430;6.806;2023-12-22T02:55:41;1.42;;;0.57;;
46613;SDS011;32338;50.430;6.806;2023-12-22T02:58:08;3.83;;;0.75;;
46613;SDS011;32338;50.430;6.806;2023-12-22T03:00:34;11.13;;;1.00;;
46613;SDS011;32338;50.430;6.806;2023-12-22T03:03:01;6.30;;;0.77;;
46613;SDS011;32338;50.430;6.806;2023-12-22T03:05:28;7.07;;;1.00;;
46613;SDS011;32338;50.430;6.806;2023-12-22T03:07:54;5.50;;;0.80;;
46613;SDS011;32338;50.430;6.806;2023-12-22T03:10:21;10.60;;;1.33;;
46613;SDS011;32338;50.430;6.806;2023-12-22T03:12:48;7.97;;;1.20;;
46613;SDS011;32338;50.430;6.806;2023-12-22T03:15:15;10.80;;;1.75;;
46613;SDS011;32338;50.430;6.806;2023-12-22T03:17:42;13.93;;;1.90;;
46613;SDS011;32338;50.430;6.806;2023-12-22T03:20:08;18.38;;;1.83;;
46613;SDS011;32338;50.430;6.806;2023-12-22T03:22:35;17.85;;;1.90;;
46613;SDS011;32338;50.430;6.806;2023-12-22T03:25:02;15.23;;;1.85;;
46613;SDS011;32338;50.430;6.806;2023-12-22T03:27:29;17.00;;;2.20;;
46613;SDS011;32338;50.430;6.806;2023-12-22T03:29:56;17.50;;;2.03;;
46613;SDS011;32338;50.430;6.806;2023-12-22T03:32:23;13.90;;;2.58;;
46613;SDS011;32338;50.430;6.806;2023-12-22T03:34:50;8.40;;;1.77;;
46613;SDS011;32338;50.430;6.806;2023-12-22T03:37:16;12.90;;;1.52;;
46613;SDS011;32338;50.430;6.806;2023-12-22T03:39:43;9.68;;;1.42;;
46613;SDS011;32338;50.430;6.806;2023-12-22T03:42:09;10.73;;;1.25;;
46613;SDS011;32338;50.430;6.806;2023-12-22T03:44:36;9.15;;;1.10;;
46613;SDS011;32338;50.430;6.806;2023-12-22T03:47:04;3.75;;;0.77;;
46613;SDS011;32338;50.430;6.806;2023-12-22T03:49:30;7.93;;;1.00;;
46613;SDS011;32338;50.430;6.806;2023-12-22T03:51:57;6.57;;;0.85;;
46613;SDS011;32338;50.430;6.806;2023-12-22T03:54:23;10.00;;;0.73;;
46613;SDS011;32338;50.430;6.806;2023-12-22T03:56:50;8.38;;;1.05;;
46613;SDS011;32338;50.430;6.806;2023-12-22T03:59:17;5.18;;;0.70;;
46613;SDS011;32338;50.430;6.806;2023-12-22T04:01:44;7.82;;;0.60;;
46613;SDS011;32338;50.430;6.806;2023-12-22T04:04:12;3.45;;;0.60;;
46613;SDS011;32338;50.430;6.806;2023-12-22T04:06:38;1.33;;;0.30;;
46613;SDS011;32338;50.430;6.806;2023-12-22T04:09:05;4.57;;;0.63;;
46613;SDS011;32338;50.430;6.806;2023-12-22T04:11:31;2.38;;;0.80;;
46613;SDS011;32338;50.430;6.806;2023-12-22T04:13:59;2.38;;;0.75;;
46613;SDS011;32338;50.430;6.806;2023-12-22T04:16:26;8.57;;;1.02;;
46613;SDS011;32338;50.430;6.806;2023-12-22T04:18:52;9.90;;;1.65;;
46613;SDS011;32338;50.430;6.806;2023-12-22T04:21:20;16.42;;;1.92;;
46613;SDS011;32338;50.430;6.806;2023-12-22T04:23:47;15.65;;;2.45;;
46613;SDS011;32338;50.430;6.806;2023-12-22T04:26:13;11.23;;;1.73;;
46613;SDS011;32338;50.430;6.806;2023-12-22T04:28:40;19.15;;;2.10;;
46613;SDS011;32338;50.430;6.806;2023-12-22T04:31:07;11.10;;;2.00;;
46613;SDS011;32338;50.430;6.806;2023-12-22T04:33:33;23.27;;;1.75;;
46613;SDS011;32338;50.430;6.806;2023-12-22T04:35:59;14.30;;;2.00;;
46613;SDS011;32338;50.430;6.806;2023-12-22T04:38:27;10.88;;;1.30;;
46613;SDS011;32338;50.430;6.806;2023-12-22T04:40:53;15.45;;;2.08;;
46613;SDS011;32338;50.430;6.806;2023-12-22T04:43:20;16.85;;;2.17;;
46613;SDS011;32338;50.430;6.806;2023-12-22T04:45:46;10.68;;;1.60;;
46613;SDS011;32338;50.430;6.806;2023-12-22T04:48:13;13.82;;;1.92;;
46613;SDS011;32338;50.430;6.806;2023-12-22T04:50:39;11.77;;;1.48;;
46613;SDS011;32338;50.430;6.806;2023-12-22T04:53:06;11.93;;;1.63;;
46613;SDS011;32338;50.430;6.806;2023-12-22T04:55:34;9.55;;;1.80;;
46613;SDS011;32338;50.430;6.806;2023-12-22T04:58:01;18.45;;;1.67;;
46613;SDS011;32338;50.430;6.806;2023-12-22T05:00:27;15.02;;;1.88;;
46613;SDS011;32338;50.430;6.806;2023-12-22T05:02:54;11.32;;;1.55;;
46613;SDS011;32338;50.430;6.806;2023-12-22T05:05:20;12.73;;;2.00;;
46613;SDS011;32338;50.430;6.806;2023-12-22T05:07:48;15.05;;;2.28;;
46613;SDS011;32338;50.430;6.806;2023-12-22T05:10:15;13.45;;;2.10;;
46613;SDS011;32338;50.430;6.806;2023-12-22T05:12:43;13.10;;;2.67;;
46613;SDS011;32338;50.430;6.806;2023-12-22T05:15:09;10.38;;;1.58;;
46613;SDS011;32338;50.430;6.806;2023-12-22T05:17:36;11.77;;;2.05;;
46613;SDS011;32338;50.430;6.806;2023-12-22T05:20:03;12.10;;;1.90;;
46613;SDS011;32338;50.430;6.806;2023-12-22T05:22:31;11.48;;;2.13;;
46613;SDS011;32338;50.430;6.806;2023-12-22T05:24:57;14.98;;;1.73;;
46613;SDS011;32338;50.430;6.806;2023-12-22T05:27:26;18.85;;;2.03;;
46613;SDS011;32338;50.430;6.806;2023-12-22T05:29:54;14.90;;;1.92;;
46613;SDS011;32338;50.430;6.806;2023-12-22T05:32:26;13.60;;;1.80;;
46613;SDS011;32338;50.430;6.806;2023-12-22T05:34:52;14.10;;;1.60;;
46613;SDS011;32338;50.430;6.806;2023-12-22T05:37:19;12.95;;;1.83;;
46613;SDS011;32338;50.430;6.806;2023-12-22T05:39:45;15.27;;;2.08;;
46613;SDS011;32338;50.430;6.806;2023-12-22T05:42:12;17.25;;;1.50;;
46613;SDS011;32338;50.430;6.806;2023-12-22T05:44:38;14.50;;;1.33;;
46613;SDS011;32338;50.430;6.806;2023-12-22T05:47:07;11.80;;;2.00;;
46613;SDS011;32338;50.430;6.806;2023-12-22T05:49:34;21.30;;;1.98;;
46613;SDS011;32338;50.430;6.806;2023-12-22T05:52:01;15.27;;;1.48;;
46613;SDS011;32338;50.430;6.806;2023-12-22T05:54:27;7.43;;;1.27;;
46613;SDS011;32338;50.430;6.806;2023-12-22T05:56:54;13.85;;;1.30;;
46613;SDS011;32338;50.430;6.806;2023-12-22T05:59:20;11.93;;;1.58;;
46613;SDS011;32338;50.430;6.806;2023-12-22T06:01:47;17.23;;;1.92;;
46613;SDS011;32338;50.430;6.806;2023-12-22T06:04:15;15.88;;;2.47;;
46613;SDS011;32338;50.430;6.806;2023-12-22T06:06:42;10.15;;;1.30;;
46613;SDS011;32338;50.430;6.806;2023-12-22T06:09:08;14.32;;;2.47;;
46613;SDS011;32338;50.430;6.806;2023-12-22T06:11:37;13.23;;;1.55;;
46613;SDS011;32338;50.430;6.806;2023-12-22T06:14:04;7.15;;;1.45;;
46613;SDS011;32338;50.430;6.806;2023-12-22T06:16:31;8.02;;;0.85;;
46613;SDS011;32338;50.430;6.806;2023-12-22T06:18:57;11.18;;;1.05;;
46613;SDS011;32338;50.430;6.806;2023-12-22T06:21:25;15.52;;;2.25;;
46613;SDS011;32338;50.430;6.806;2023-12-22T06:23:52;5.68;;;0.88;;
46613;SDS011;32338;50.430;6.806;2023-12-22T06:26:18;12.90;;;1.25;;
46613;SDS011;32338;50.430;6.806;2023-12-22T06:28:45;8.00;;;0.90;;
46613;SDS011;32338;50.430;6.806;2023-12-22T06:31:16;7.15;;;0.85;;
46613;SDS011;32338;50.430;6.806;2023-12-22T06:33:44;10.68;;;1.33;;
46613;SDS011;32338;50.430;6.806;2023-12-22T06:36:17;7.53;;;1.13;;
46613;SDS011;32338;50.430;6.806;2023-12-22T06:38:45;9.77;;;1.67;;
46613;SDS011;32338;50.430;6.806;2023-12-22T06:41:17;8.52;;;1.33;;
46613;SDS011;32338;50.430;6.806;2023-12-22T06:43:45;12.23;;;1.45;;
46613;SDS011;32338;50.430;6.806;2023-12-22T06:46:14;12.52;;;1.55;;
46613;SDS011;32338;50.430;6.806;2023-12-22T06:48:41;10.57;;;1.42;;
46613;SDS011;32338;50.430;6.806;2023-12-22T06:51:11;9.95;;;1.50;;
46613;SDS011;32338;50.430;6.806;2023-12-22T06:53:43;6.75;;;1.58;;
46613;SDS011;32338;50.430;6.806;2023-12-22T06:56:15;9.02;;;1.02;;
46613;SDS011;32338;50.430;6.806;2023-12-22T06:58:42;10.65;;;1.10;;
46613;SDS011;32338;50.430;6.806;2023-12-22T07:01:09;9.68;;;1.45;;
46613;SDS011;32338;50.430;6.806;2023-12-22T07:03:36;13.60;;;1.23;;
46613;SDS011;32338;50.430;6.806;2023-12-22T07:06:04;8.15;;;1.13;;
46613;SDS011;32338;50.430;6.806;2023-12-22T07:08:30;8.18;;;2.50;;
46613;SDS011;32338;50.430;6.806;2023-12-22T07:10:57;16.90;;;3.95;;
46613;SDS011;32338;50.430;6.806;2023-12-22T07:13:25;8.13;;;1.55;;
46613;SDS011;32338;50.430;6.806;2023-12-22T07:15:51;10.85;;;3.13;;
46613;SDS011;32338;50.430;6.806;2023-12-22T07:18:18;24.70;;;6.15;;
46613;SDS011;32338;50.430;6.806;2023-12-22T07:20:44;20.88;;;2.55;;
46613;SDS011;32338;50.430;6.806;2023-12-22T07:23:11;18.65;;;2.60;;
46613;SDS011;32338;50.430;6.806;2023-12-22T07:25:38;26.25;;;2.78;;
46613;SDS011;32338;50.430;6.806;2023-12-22T07:28:05;22.20;;;2.78;;
46613;SDS011;32338;50.430;6.806;2023-12-22T07:30:33;38.55;;;3.28;;
46613;SDS011;32338;50.430;6.806;2023-12-22T07:33:00;30.48;;;3.05;;
46613;SDS011;32338;50.430;6.806;2023-12-22T07:35:27;29.45;;;3.00;;
46613;SDS011;32338;50.430;6.806;2023-12-22T07:37:54;25.80;;;2.78;;
46613;SDS011;32338;50.430;6.806;2023-12-22T07:40:20;48.20;;;3.85;;
46613;SDS011;32338;50.430;6.806;2023-12-22T07:42:47;25.42;;;3.45;;
46613;SDS011;32338;50.430;6.806;2023-12-22T07:45:15;23.05;;;3.10;;
46613;SDS011;32338;50.430;6.806;2023-12-22T07:47:43;22.58;;;2.88;;
46613;SDS011;32338;50.430;6.806;2023-12-22T07:50:11;30.08;;;3.08;;
46613;SDS011;32338;50.430;6.806;2023-12-22T07:52:38;23.65;;;3.45;;
46613;SDS011;32338;50.430;6.806;2023-12-22T07:55:05;22.65;;;2.97;;
46613;SDS011;32338;50.430;6.806;2023-12-22T07:57:34;28.40;;;3.10;;
46613;SDS011;32338;50.430;6.806;2023-12-22T08:00:01;21.33;;;2.92;;
46613;SDS011;32338;50.430;6.806;2023-12-22T08:02:28;27.48;;;3.28;;
46613;SDS011;32338;50.430;6.806;2023-12-22T08:04:56;21.20;;;3.17;;
46613;SDS011;32338;50.430;6.806;2023-12-22T08:07:23;22.90;;;2.30;;
46613;SDS011;32338;50.430;6.806;2023-12-22T08:09:49;21.85;;;2.65;;
46613;SDS011;32338;50.430;6.806;2023-12-22T08:12:16;25.13;;;2.85;;
46613;SDS011;32338;50.430;6.806;2023-12-22T08:14:42;17.48;;;3.53;;
46613;SDS011;32338;50.430;6.806;2023-12-22T08:17:09;19.48;;;3.97;;
46613;SDS011;32338;50.430;6.806;2023-12-22T08:19:38;22.10;;;2.75;;
46613;SDS011;32338;50.430;6.806;2023-12-22T08:22:09;21.33;;;2.85;;
46613;SDS011;32338;50.430;6.806;2023-12-22T08:24:35;15.70;;;2.42;;
46613;SDS011;32338;50.430;6.806;2023-12-22T08:27:02;20.90;;;3.00;;
46613;SDS011;32338;50.430;6.806;2023-12-22T08:29:29;16.20;;;2.30;;
46613;SDS011;32338;50.430;6.806;2023-12-22T08:31:55;13.93;;;2.85;;
46613;SDS011;32338;50.430;6.806;2023-12-22T08:34:22;21.27;;;2.95;;
46613;SDS011;32338;50.430;6.806;2023-12-22T08:36:49;16.75;;;2.40;;
46613;SDS011;32338;50.430;6.806;2023-12-22T08:39:17;19.45;;;2.60;;
46613;SDS011;32338;50.430;6.806;2023-12-22T08:41:43;11.68;;;2.25;;
46613;SDS011;32338;50.430;6.806;2023-12-22T08:44:09;13.65;;;2.13;;
46613;SDS011;32338;50.430;6.806;2023-12-22T08:46:36;17.85;;;2.63;;
46613;SDS011;32338;50.430;6.806;2023-12-22T08:49:03;13.02;;;2.35;;
46613;SDS011;32338;50.430;6.806;2023-12-22T08:51:29;20.02;;;2.78;;
46613;SDS011;32338;50.430;6.806;2023-12-22T08:53:56;8.40;;;1.80;;
46613;SDS011;32338;50.430;6.806;2023-12-22T08:56:24;17.67;;;2.28;;
46613;SDS011;32338;50.430;6.806;2023-12-22T08:58:51;15.35;;;1.92;;
46613;SDS011;32338;50.430;6.806;2023-12-22T09:01:20;17.48;;;2.40;;
46613;SDS011;32338;50.430;6.806;2023-12-22T09:03:48;12.07;;;1.70;;
46613;SDS011;32338;50.430;6.806;2023-12-22T09:06:14;10.90;;;1.60;;
46613;SDS011;32338;50.430;6.806;2023-12-22T09:08:41;13.02;;;1.88;;
46613;SDS011;32338;50.430;6.806;2023-12-22T09:11:08;13.95;;;2.15;;
46613;SDS011;32338;50.430;6.806;2023-12-22T09:13:37;7.30;;;1.50;;
46613;SDS011;32338;50.430;6.806;2023-12-22T09:16:04;12.80;;;1.73;;
46613;SDS011;32338;50.430;6.806;2023-12-22T09:18:31;11.70;;;1.88;;
46613;SDS011;32338;50.430;6.806;2023-12-22T09:20:57;12.13;;;1.73;;
46613;SDS011;32338;50.430;6.806;2023-12-22T09:23:24;11.00;;;1.30;;
46613;SDS011;32338;50.430;6.806;2023-12-22T09:25:51;8.32;;;1.30;;
46613;SDS011;32338;50.430;6.806;2023-12-22T09:28:17;7.78;;;1.10;;
46613;SDS011;32338;50.430;6.806;2023-12-22T09:30:45;9.80;;;1.65;;
46613;SDS011;32338;50.430;6.806;2023-12-22T09:33:12;9.73;;;1.02;;
46613;SDS011;32338;50.430;6.806;2023-12-22T09:35:38;9.00;;;1.40;;
46613;SDS011;32338;50.430;6.806;2023-12-22T09:38:07;7.78;;;1.10;;
46613;SDS011;32338;50.430;6.806;2023-12-22T09:40:34;8.30;;;1.05;;
46613;SDS011;32338;50.430;6.806;2023-12-22T09:43:01;3.50;;;0.90;;
46613;SDS011;32338;50.430;6.806;2023-12-22T09:45:30;6.50;;;1.63;;
46613;SDS011;32338;50.430;6.806;2023-12-22T09:48:00;6.57;;;1.13;;
46613;SDS011;32338;50.430;6.806;2023-12-22T09:50:28;4.18;;;0.75;;
46613;SDS011;32338;50.430;6.806;2023-12-22T09:52:56;8.50;;;1.00;;
46613;SDS011;32338;50.430;6.806;2023-12-22T09:55:23;1.95;;;1.00;;
46613;SDS011;32338;50.430;6.806;2023-12-22T09:57:52;3.60;;;0.75;;
46613;SDS011;32338;50.430;6.806;2023-12-22T10:00:20;2.92;;;0.70;;
46613;SDS011;32338;50.430;6.806;2023-12-22T10:02:48;5.07;;;0.88;;
46613;SDS011;32338;50.430;6.806;2023-12-22T10:05:16;2.35;;;0.93;;
46613;SDS011;32338;50.430;6.806;2023-12-22T10:07:44;3.95;;;0.60;;
46613;SDS011;32338;50.430;6.806;2023-12-22T10:10:11;4.63;;;0.98;;
46613;SDS011;32338;50.430;6.806;2023-12-22T10:12:38;2.05;;;0.82;;
46613;SDS011;32338;50.430;6.806;2023-12-22T10:15:05;5.25;;;0.90;;
46613;SDS011;32338;50.430;6.806;2023-12-22T10:17:35;7.15;;;0.70;;
46613;SDS011;32338;50.430;6.806;2023-12-22T10:20:02;4.38;;;0.80;;
46613;SDS011;32338;50.430;6.806;2023-12-22T10:22:30;1.17;;;0.50;;
46613;SDS011;32338;50.430;6.806;2023-12-22T10:24:57;1.85;;;0.40;;
46613;SDS011;32338;50.430;6.806;2023-12-22T10:27:23;2.30;;;0.40;;
46613;SDS011;32338;50.430;6.806;2023-12-22T10:29:50;4.72;;;0.45;;
46613;SDS011;32338;50.430;6.806;2023-12-22T10:32:19;0.60;;;0.20;;
46613;SDS011;32338;50.430;6.806;2023-12-22T10:34:47;2.03;;;0.30;;
46613;SDS011;32338;50.430;6.806;2023-12-22T10:37:14;1.98;;;0.52;;
46613;SDS011;32338;50.430;6.806;2023-12-22T10:39:43;0.85;;;0.30;;
46613;SDS011;32338;50.430;6.806;2023-12-22T10:42:13;2.35;;;0.30;;
46613;SDS011;32338;50.430;6.806;2023-12-22T10:44:40;1.15;;;0.35;;
46613;SDS011;32338;50.430;6.806;2023-12-22T10:47:07;2.05;;;0.30;;
46613;SDS011;32338;50.430;6.806;2023-12-22T10:49:34;0.70;;;0.30;;
46613;SDS011;32338;50.430;6.806;2023-12-22T10:52:03;0.75;;;0.10;;
46613;SDS011;32338;50.430;6.806;2023-12-22T10:54:30;1.20;;;0.10;;
46613;SDS011;32338;50.430;6.806;2023-12-22T10:56:59;1.55;;;0.30;;
46613;SDS011;32338;50.430;6.806;2023-12-22T10:59:27;0.75;;;0.10;;
46613;SDS011;32338;50.430;6.806;2023-12-22T11:01:56;2.45;;;0.60;;
46613;SDS011;32338;50.430;6.806;2023-12-22T11:04:25;1.40;;;0.60;;
46613;SDS011;32338;50.430;6.806;2023-12-22T11:06:56;3.10;;;0.22;;
46613;SDS011;32338;50.430;6.806;2023-12-22T11:09:24;0.47;;;0.20;;
46613;SDS011;32338;50.430;6.806;2023-12-22T11:11:59;0.15;;;0.10;;
46613;SDS011;32338;50.430;6.806;2023-12-22T11:14:27;0.73;;;0.10;;
46613;SDS011;32338;50.430;6.806;2023-12-22T11:16:57;0.10;;;0.10;;
46613;SDS011;32338;50.430;6.806;2023-12-22T11:19:26;0.08;;;0.08;;
46613;SDS011;32338;50.430;6.806;2023-12-22T11:21:54;0.30;;;0.05;;
46613;SDS011;32338;50.430;6.806;2023-12-22T11:24:24;0.43;;;0.43;;
46613;SDS011;32338;50.430;6.806;2023-12-22T11:26:54;0.55;;;0.10;;
46613;SDS011;32338;50.430;6.806;2023-12-22T11:29:24;0.35;;;0.20;;
46613;SDS011;32338;50.430;6.806;2023-12-22T11:31:52;0.28;;;0.20;;
46613;SDS011;32338;50.430;6.806;2023-12-22T11:34:21;0.20;;;0.10;;
46613;SDS011;32338;50.430;6.806;2023-12-22T11:36:49;0.75;;;0.20;;
46613;SDS011;32338;50.430;6.806;2023-12-22T11:39:18;0.10;;;0.10;;
46613;SDS011;32338;50.430;6.806;2023-12-22T11:41:44;0.68;;;0.30;;
46613;SDS011;32338;50.430;6.806;2023-12-22T11:44:13;0.40;;;0.20;;
46613;SDS011;32338;50.430;6.806;2023-12-22T11:46:41;0.20;;;0.20;;
46613;SDS011;32338;50.430;6.806;2023-12-22T11:49:08;1.33;;;0.30;;
46613;SDS011;32338;50.430;6.806;2023-12-22T11:51:34;0.73;;;0.20;;
46613;SDS011;32338;50.430;6.806;2023-12-22T11:54:01;0.20;;;0.20;;
46613;SDS011;32338;50.430;6.806;2023-12-22T11:56:28;1.85;;;0.30;;
46613;SDS011;32338;50.430;6.806;2023-12-22T11:58:55;0.40;;;0.30;;
46613;SDS011;32338;50.430;6.806;2023-12-22T12:01:24;1.00;;;0.38;;
46613;SDS011;32338;50.430;6.806;2023-12-22T12:03:55;0.88;;;0.30;;
46613;SDS011;32338;50.430;6.806;2023-12-22T12:06:30;1.08;;;0.35;;
46613;SDS011;32338;50.430;6.806;2023-12-22T12:08:59;1.98;;;0.47;;
46613;SDS011;32338;50.430;6.806;2023-12-22T12:14:29;1.20;;;0.57;;
46613;SDS011;32338;50.430;6.806;2023-12-22T12:17:00;0.30;;;0.30;;
46613;SDS011;32338;50.430;6.806;2023-12-22T12:19:34;0.77;;;0.30;;
46613;SDS011;32338;50.430;6.806;2023-12-22T12:22:02;2.58;;;0.30;;
46613;SDS011;32338;50.430;6.806;2023-12-22T12:24:29;0.68;;;0.50;;
46613;SDS011;32338;50.430;6.806;2023-12-22T12:26:56;1.48;;;0.60;;
46613;SDS011;32338;50.430;6.806;2023-12-22T12:29:22;0.85;;;0.40;;
46613;SDS011;32338;50.430;6.806;2023-12-22T12:31:49;1.20;;;0.40;;
46613;SDS011;32338;50.430;6.806;2023-12-22T12:34:17;0.70;;;0.40;;
46613;SDS011;32338;50.430;6.806;2023-12-22T12:36:47;0.55;;;0.40;;
46613;SDS011;32338;50.430;6.806;2023-12-22T12:39:14;1.40;;;0.40;;
46613;SDS011;32338;50.430;6.806;2023-12-22T12:41:42;0.63;;;0.50;;
46613;SDS011;32338;50.430;6.806;2023-12-22T12:44:10;0.77;;;0.38;;
46613;SDS011;32338;50.430;6.806;2023-12-22T12:46:37;0.77;;;0.50;;
46613;SDS011;32338;50.430;6.806;2023-12-22T12:49:04;0.75;;;0.40;;
46613;SDS011;32338;50.430;6.806;2023-12-22T12:51:35;1.08;;;0.45;;
46613;SDS011;32338;50.430;6.806;2023-12-22T12:54:04;2.17;;;0.63;;
46613;SDS011;32338;50.430;6.806;2023-12-22T12:56:35;1.48;;;0.30;;
46613;SDS011;32338;50.430;6.806;2023-12-22T12:59:06;2.72;;;0.50;;
46613;SDS011;32338;50.430;6.806;2023-12-22T13:01:37;2.70;;;0.60;;
46613;SDS011;32338;50.430;6.806;2023-12-22T13:04:04;2.60;;;0.55;;
46613;SDS011;32338;50.430;6.806;2023-12-22T13:06:30;0.88;;;0.30;;
46613;SDS011;32338;50.430;6.806;2023-12-22T13:08:57;2.83;;;0.38;;
46613;SDS011;32338;50.430;6.806;2023-12-22T13:11:25;3.03;;;1.40;;
46613;SDS011;32338;50.430;6.806;2023-12-22T13:13:53;2.00;;;0.40;;
46613;SDS011;32338;50.430;6.806;2023-12-22T13:16:20;1.70;;;1.00;;
46613;SDS011;32338;50.430;6.806;2023-12-22T13:18:50;1.08;;;0.43;;
46613;SDS011;32338;50.430;6.806;2023-12-22T13:21:17;1.85;;;0.98;;
46613;SDS011;32338;50.430;6.806;2023-12-22T13:23:44;1.15;;;0.65;;
46613;SDS011;32338;50.430;6.806;2023-12-22T13:26:17;1.95;;;0.85;;
46613;SDS011;32338;50.430;6.806;2023-12-22T13:28:45;2.25;;;1.83;;
46613;SDS011;32338;50.430;6.806;2023-12-22T13:31:12;1.95;;;0.38;;
46613;SDS011;32338;50.430;6.806;2023-12-22T13:33:40;2.47;;;0.50;;
46613;SDS011;32338;50.430;6.806;2023-12-22T13:36:06;1.85;;;0.50;;
46613;SDS011;32338;50.430;6.806;2023-12-22T13:38:33;1.95;;;0.38;;
46613;SDS011;32338;50.430;6.806;2023-12-22T13:41:00;1.63;;;0.60;;
46613;SDS011;32338;50.430;6.806;2023-12-22T13:43:27;0.90;;;0.50;;
46613;SDS011;32338;50.430;6.806;2023-12-22T13:45:56;0.85;;;0.30;;
46613;SDS011;32338;50.430;6.806;2023-12-22T13:48:23;0.30;;;0.30;;
46613;SDS011;32338;50.430;6.806;2023-12-22T13:50:55;0.20;;;0.20;;
46613;SDS011;32338;50.430;6.806;2023-12-22T13:53:23;1.60;;;0.30;;
46613;SDS011;32338;50.430;6.806;2023-12-22T13:55:53;0.60;;;0.20;;
46613;SDS011;32338;50.430;6.806;2023-12-22T13:58:20;0.90;;;0.50;;
46613;SDS011;32338;50.430;6.806;2023-12-22T14:00:46;0.98;;;0.30;;
46613;SDS011;32338;50.430;6.806;2023-12-22T14:03:14;1.50;;;0.30;;
46613;SDS011;32338;50.430;6.806;2023-12-22T14:05:41;0.70;;;0.40;;
46613;SDS011;32338;50.430;6.806;2023-12-22T14:08:08;0.68;;;0.35;;
46613;SDS011;32338;50.430;6.806;2023-12-22T14:10:34;3.20;;;0.80;;
46613;SDS011;32338;50.430;6.806;2023-12-22T14:13:01;1.55;;;0.45;;
46613;SDS011;32338;50.430;6.806;2023-12-22T14:15:28;1.85;;;0.60;;
46613;SDS011;32338;50.430;6.806;2023-12-22T14:17:55;4.78;;;0.75;;
46613;SDS011;32338;50.430;6.806;2023-12-22T14:20:23;3.60;;;1.15;;
46613;SDS011;32338;50.430;6.806;2023-12-22T14:22:50;2.55;;;0.47;;
46613;SDS011;32338;50.430;6.806;2023-12-22T14:25:16;3.17;;;0.80;;
46613;SDS011;32338;50.430;6.806;2023-12-22T14:27:43;4.90;;;0.60;;
46613;SDS011;32338;50.430;6.806;2023-12-22T14:30:10;1.23;;;0.68;;
46613;SDS011;32338;50.430;6.806;2023-12-22T14:32:37;5.90;;;0.52;;
46613;SDS011;32338;50.430;6.806;2023-12-22T14:35:04;2.40;;;0.45;;
46613;SDS011;32338;50.430;6.806;2023-12-22T14:37:32;2.30;;;0.40;;
46613;SDS011;32338;50.430;6.806;2023-12-22T14:39:59;2.20;;;0.45;;
46613;SDS011;32338;50.430;6.806;2023-12-22T14:42:26;1.40;;;0.50;;
46613;SDS011;32338;50.430;6.806;2023-12-22T14:44:52;2.28;;;0.68;;
46613;SDS011;32338;50.430;6.806;2023-12-22T14:47:19;0.90;;;0.50;;